Time;durP1;ratioP1;P1;durP2;ratioP2;P2;SDS_P1;SDS_P2;PMS_P1;PMS_P2;Temp;Humidity;BMP_temperature;BMP_pressure;BME280_temperature;BME280_humidity;BME280_pressure;Samples;Min_cycle;Max_cycle;Signal;HPM_P1;HPM_P2
2021/04/25 00:01:14;;;;;;;6.30;3.83;;;;;;;8.67;63.85;98572.19;5096807;28;20214;-71
2021/04/25 00:03:40;;;;;;;4.53;3.30;;;;;;;8.60;64.36;98584.00;5096819;28;20209;-70
2021/04/25 00:06:06;;;;;;;7.07;3.53;;;;;;;8.59;64.19;98577.06;5096518;28;20264;-75
2021/04/25 00:08:32;;;;;;;6.33;3.33;;;;;;;8.56;64.44;98578.06;5096529;28;20209;-74
2021/04/25 00:10:59;;;;;;;8.67;3.60;;;;;;;8.55;64.72;98580.78;5096107;28;20207;-73
2021/04/25 00:13:25;;;;;;;7.33;3.83;;;;;;;8.60;64.21;98584.00;5095703;28;20589;-71
2021/04/25 00:15:51;;;;;;;5.13;3.10;;;;;;;8.53;64.80;98583.50;5094539;28;20206;-71
2021/04/25 00:18:18;;;;;;;6.97;3.80;;;;;;;8.45;65.35;98588.31;5093991;28;20599;-70
2021/04/25 00:20:44;;;;;;;6.27;3.37;;;;;;;8.49;64.76;98591.63;5094937;28;20279;-73
2021/04/25 00:23:10;;;;;;;5.80;3.33;;;;;;;8.46;65.12;98587.38;5094552;28;20660;-69
2021/04/25 00:25:36;;;;;;;5.50;3.57;;;;;;;8.48;65.08;98579.41;5094871;28;20259;-73
2021/04/25 00:28:02;;;;;;;4.97;3.40;;;;;;;8.41;65.49;98586.81;5094520;28;20246;-73
2021/04/25 00:30:28;;;;;;;4.20;3.37;;;;;;;8.37;65.63;98577.34;5094752;28;20211;-68
2021/04/25 00:32:55;;;;;;;5.37;3.50;;;;;;;8.33;65.90;98582.88;5094444;28;20213;-72
2021/04/25 00:35:21;;;;;;;5.70;3.27;;;;;;;8.30;65.57;98580.38;5094846;28;20207;-74
2021/04/25 00:37:48;;;;;;;7.47;3.53;;;;;;;8.35;65.55;98578.38;5094612;28;20257;-76
2021/04/25 00:40:16;;;;;;;4.93;3.30;;;;;;;8.31;65.50;98571.53;5094416;28;20691;-76
2021/04/25 00:42:43;;;;;;;6.40;3.50;;;;;;;8.21;66.27;98568.56;5093090;28;20218;-75
2021/04/25 00:45:12;;;;;;;5.63;3.30;;;;;;;8.23;66.58;98573.75;5094270;28;20218;-76
2021/04/25 00:47:39;;;;;;;6.73;3.40;;;;;;;8.26;65.96;98565.69;5094315;28;20207;-75
2021/04/25 00:50:08;;;;;;;5.93;3.53;;;;;;;8.23;66.41;98565.84;5094633;28;20609;-77
2021/04/25 00:52:37;;;;;;;5.57;3.40;;;;;;;8.11;66.68;98574.34;5094584;28;20207;-76
2021/04/25 00:55:05;;;;;;;6.60;3.70;;;;;;;8.00;67.53;98567.03;5094319;28;20210;-77
2021/04/25 00:57:31;;;;;;;5.83;3.37;;;;;;;8.05;67.34;98569.41;5093999;28;20228;-76
2021/04/25 00:59:58;;;;;;;4.97;3.40;;;;;;;8.06;67.39;98560.56;5093974;28;20211;-69
2021/04/25 01:02:24;;;;;;;5.93;3.33;;;;;;;8.09;67.12;98561.28;5094381;28;20268;-69
2021/04/25 01:04:50;;;;;;;4.97;3.50;;;;;;;8.00;67.63;98558.28;5094365;28;20553;-69
2021/04/25 01:07:17;;;;;;;5.57;3.60;;;;;;;7.90;67.90;98557.91;5094184;28;20225;-69
2021/04/25 01:09:43;;;;;;;6.67;3.40;;;;;;;7.91;67.45;98561.41;5092444;28;20206;-69
2021/04/25 01:12:09;;;;;;;4.97;3.00;;;;;;;7.88;68.38;98564.16;5093908;28;20206;-70
2021/04/25 01:14:36;;;;;;;6.93;3.47;;;;;;;7.93;68.57;98562.16;5074635;28;582248;-69
2021/04/25 01:17:02;;;;;;;4.27;3.20;;;;;;;7.92;67.81;98563.09;5095071;28;20585;-69
2021/04/25 01:19:28;;;;;;;4.10;3.20;;;;;;;7.85;68.52;98561.72;5094801;28;20230;-70
2021/04/25 01:21:54;;;;;;;5.30;3.77;;;;;;;7.89;67.63;98563.25;5095102;28;20682;-70
2021/04/25 01:24:20;;;;;;;5.97;3.40;;;;;;;7.84;68.40;98565.28;5094903;28;20214;-69
2021/04/25 01:26:46;;;;;;;6.23;4.00;;;;;;;7.74;68.98;98569.28;5094968;28;20229;-70
2021/04/25 01:29:13;;;;;;;6.43;4.27;;;;;;;7.77;69.06;98580.50;5094928;28;20568;-70
2021/04/25 01:31:38;;;;;;;8.30;3.93;;;;;;;7.81;69.27;98576.81;5094765;28;20221;-70
2021/04/25 01:34:04;;;;;;;5.23;3.90;;;;;;;7.85;68.63;98580.13;5094565;28;20660;-70
2021/04/25 01:36:30;;;;;;;7.07;3.70;;;;;;;7.79;68.94;98577.81;5093240;28;20313;-70
2021/04/25 01:38:57;;;;;;;8.80;3.67;;;;;;;7.71;69.67;98580.81;5094603;28;20291;-71
2021/04/25 01:41:23;;;;;;;7.83;4.27;;;;;;;7.67;69.92;98584.56;5094653;28;20214;-69
2021/04/25 01:43:49;;;;;;;6.77;4.37;;;;;;;7.57;69.93;98583.31;5093870;28;20222;-73
2021/04/25 01:46:15;;;;;;;5.07;3.67;;;;;;;7.57;70.51;98577.19;5094074;28;20217;-73
2021/04/25 01:48:42;;;;;;;5.73;3.50;;;;;;;7.46;70.72;98585.63;5094115;28;20306;-73
2021/04/25 01:51:08;;;;;;;6.13;4.00;;;;;;;7.39;70.69;98584.22;5094356;28;20244;-73
2021/04/25 01:53:34;;;;;;;7.17;3.70;;;;;;;7.48;71.25;98588.19;5094321;28;20609;-73
2021/04/25 01:56:03;;;;;;;6.07;3.80;;;;;;;7.45;71.46;98585.69;5094120;28;20206;-73
2021/04/25 01:58:29;;;;;;;4.90;3.57;;;;;;;7.35;72.07;98581.81;5094235;28;20250;-73
2021/04/25 02:00:56;;;;;;;6.50;3.67;;;;;;;7.37;71.38;98585.22;5092561;28;20218;-72
2021/04/25 02:03:24;;;;;;;9.37;4.33;;;;;;;7.32;72.22;98590.72;5094247;28;20208;-73
2021/04/25 02:05:51;;;;;;;5.97;3.87;;;;;;;7.30;71.50;98584.66;5093800;28;20213;-73
2021/04/25 02:08:18;;;;;;;7.70;3.87;;;;;;;7.39;71.08;98584.22;5093762;28;20250;-73
2021/04/25 02:10:45;;;;;;;6.07;4.07;;;;;;;7.31;72.11;98580.25;5093959;28;20210;-72
2021/04/25 02:13:12;;;;;;;8.93;4.20;;;;;;;7.27;71.75;98578.69;5093603;28;20234;-73
2021/04/25 02:15:40;;;;;;;5.83;4.10;;;;;;;7.27;72.02;98578.69;5093808;28;20232;-73
2021/04/25 02:18:06;;;;;;;5.80;3.80;;;;;;;7.28;71.60;98585.69;5093520;28;20729;-73
2021/04/25 02:20:32;;;;;;;5.27;3.97;;;;;;;7.23;72.16;98571.91;5093802;28;20210;-73
2021/04/25 02:22:58;;;;;;;5.57;4.00;;;;;;;7.16;73.07;98574.91;5094034;28;20216;-73
2021/04/25 02:25:25;;;;;;;7.70;4.50;;;;;;;7.20;71.92;98574.66;5093858;28;20208;-67
2021/04/25 02:27:51;;;;;;;5.00;3.90;;;;;;;7.18;71.74;98568.66;5091862;28;20210;-69
2021/04/25 02:30:21;;;;;;;5.60;4.10;;;;;;;7.10;72.38;98565.56;5093711;28;20214;-69
2021/04/25 02:32:47;;;;;;;6.93;4.23;;;;;;;7.08;73.17;98571.81;5093896;28;20220;-74
2021/04/25 02:35:15;;;;;;;7.77;4.57;;;;;;;7.09;72.85;98571.72;5093766;28;20208;-72
2021/04/25 02:37:41;;;;;;;7.03;4.37;;;;;;;7.07;72.52;98570.94;5093303;28;20303;-72
2021/04/25 02:40:09;;;;;;;6.10;4.23;;;;;;;7.05;72.99;98567.53;5093394;28;20213;-72
2021/04/25 02:42:35;;;;;;;8.70;4.30;;;;;;;7.03;72.62;98564.13;5093179;28;20215;-73
2021/04/25 02:45:02;;;;;;;5.67;3.97;;;;;;;7.01;73.15;98568.59;5093265;28;20338;-72
2021/04/25 02:47:29;;;;;;;6.70;4.17;;;;;;;6.96;73.41;98562.72;5093072;28;20209;-72
2021/04/25 02:49:55;;;;;;;6.60;4.27;;;;;;;6.94;73.73;98559.31;5093480;28;20213;-70
2021/04/25 02:52:25;;;;;;;7.23;4.50;;;;;;;6.83;74.52;98555.50;5092630;28;20222;-73
2021/04/25 02:54:51;;;;;;;8.47;4.20;;;;;;;6.84;74.31;98550.16;5092589;28;20216;-68
2021/04/25 02:57:17;;;;;;;6.77;4.33;;;;;;;6.75;74.29;98549.75;5093100;28;20213;-72
2021/04/25 02:59:43;;;;;;;6.33;4.40;;;;;;;6.79;74.38;98551.31;5093354;28;20252;-71
2021/04/25 03:02:09;;;;;;;6.50;4.30;;;;;;;6.60;75.72;98547.84;5092968;28;20698;-72
2021/04/25 03:04:36;;;;;;;7.77;4.60;;;;;;;6.62;76.03;98552.13;5093228;28;20263;-72
2021/04/25 03:07:02;;;;;;;8.93;4.73;;;;;;;6.54;75.74;98551.59;5093253;28;20222;-72
2021/04/25 03:09:28;;;;;;;7.77;4.00;;;;;;;6.50;76.76;98550.06;5093204;28;20206;-68
2021/04/25 03:11:54;;;;;;;8.37;4.40;;;;;;;6.50;76.74;98547.44;5093168;28;20686;-68
2021/04/25 03:14:20;;;;;;;8.17;4.47;;;;;;;6.53;76.14;98547.28;5093093;28;20233;-68
2021/04/25 03:16:46;;;;;;;6.87;4.43;;;;;;;6.50;76.46;98550.06;5092808;28;20668;-69
2021/04/25 03:19:12;;;;;;;8.47;4.20;;;;;;;6.48;76.88;98551.88;5091362;28;20269;-68
2021/04/25 03:21:39;;;;;;;6.50;4.50;;;;;;;6.62;75.90;98546.00;5093104;28;20257;-69
2021/04/25 03:24:05;;;;;;;8.63;4.70;;;;;;;6.66;75.61;98553.66;5093113;28;20214;-69
2021/04/25 03:26:31;;;;;;;6.00;4.13;;;;;;;6.50;75.81;98552.69;5092699;28;20206;-69
2021/04/25 03:28:57;;;;;;;9.23;4.77;;;;;;;6.41;77.06;98549.63;5092898;28;20279;-68
2021/04/25 03:31:23;;;;;;;6.67;4.27;;;;;;;6.38;77.62;98549.75;5092760;28;20284;-68
2021/04/25 03:33:49;;;;;;;8.20;4.67;;;;;;;6.42;76.98;98549.53;5092983;28;20578;-68
2021/04/25 03:36:15;;;;;;;7.13;5.00;;;;;;;6.34;77.56;98546.44;5092732;28;20216;-68
2021/04/25 03:38:42;;;;;;;7.47;4.53;;;;;;;6.22;77.69;98552.22;5092850;28;20324;-70
2021/04/25 03:41:08;;;;;;;7.00;4.70;;;;;;;6.24;78.79;98555.63;5093003;28;20220;-70
2021/04/25 03:43:34;;;;;;;6.43;4.20;;;;;;;6.11;78.93;98554.47;5092583;28;20678;-69
2021/04/25 03:46:00;;;;;;;9.10;4.83;;;;;;;6.07;79.25;98557.31;5091093;28;20252;-69
2021/04/25 03:48:26;;;;;;;6.57;4.33;;;;;;;6.07;78.81;98567.81;5092952;28;20245;-69
2021/04/25 03:50:52;;;;;;;10.33;5.30;;;;;;;6.00;80.34;98564.63;5092826;28;20213;-69
2021/04/25 03:53:18;;;;;;;7.73;4.63;;;;;;;5.98;79.97;98565.63;5092760;28;20212;-70
2021/04/25 03:55:45;;;;;;;8.73;4.43;;;;;;;5.96;80.17;98570.91;5092397;28;20252;-69
2021/04/25 03:58:11;;;;;;;7.70;4.50;;;;;;;5.90;80.72;98565.94;5092811;28;20237;-70
2021/04/25 04:00:37;;;;;;;6.30;4.30;;;;;;;5.93;80.66;98580.69;5092943;28;20212;-69
2021/04/25 04:03:03;;;;;;;8.03;4.70;;;;;;;5.91;80.73;98572.88;5092919;28;20212;-68
2021/04/25 04:05:29;;;;;;;6.80;4.43;;;;;;;5.88;80.83;98572.16;5092931;28;20240;-70
2021/04/25 04:07:55;;;;;;;6.00;4.23;;;;;;;5.91;80.87;98578.13;5096594;28;20218;-67
2021/04/25 04:10:21;;;;;;;8.30;4.93;;;;;;;5.76;81.44;98568.28;5096751;28;20670;-70
2021/04/25 04:12:48;;;;;;;6.00;4.47;;;;;;;5.78;81.68;98566.44;5094734;28;20219;-69
2021/04/25 04:15:15;;;;;;;6.60;4.27;;;;;;;5.74;82.16;98564.84;5096326;28;20205;-70
2021/04/25 04:17:41;;;;;;;9.67;5.60;;;;;;;5.78;82.34;98565.56;5095849;28;20216;-70
2021/04/25 04:20:07;;;;;;;8.70;4.93;;;;;;;5.75;82.01;98565.72;5096241;28;20344;-67
2021/04/25 04:22:33;;;;;;;6.17;4.37;;;;;;;5.65;83.07;98567.88;5096211;28;20214;-67
2021/04/25 04:24:59;;;;;;;8.03;4.80;;;;;;;5.61;83.59;98579.41;5095894;28;20278;-67
2021/04/25 04:27:25;;;;;;;7.60;4.83;;;;;;;5.69;82.80;98579.94;5095702;28;20213;-66
2021/04/25 04:29:52;;;;;;;8.00;4.63;;;;;;;5.68;82.89;98580.84;5096121;28;20252;-67
2021/04/25 04:32:19;;;;;;;6.27;4.93;;;;;;;5.65;83.71;98577.50;5095727;28;20219;-67
2021/04/25 04:34:45;;;;;;;6.93;4.77;;;;;;;5.75;82.67;98584.91;5095672;28;20210;-67
2021/04/25 04:37:11;;;;;;;8.80;4.97;;;;;;;5.82;82.91;98581.16;5094256;28;20240;-66
2021/04/25 04:39:37;;;;;;;6.60;4.17;;;;;;;5.85;82.90;98599.38;5095842;28;20709;-66
2021/04/25 04:42:04;;;;;;;6.10;4.40;;;;;;;5.85;82.92;98594.13;5095861;28;20214;-66
2021/04/25 04:44:30;;;;;;;6.90;4.53;;;;;;;5.88;82.75;98593.16;5095822;28;20218;-66
2021/04/25 04:46:57;;;;;;;7.07;4.57;;;;;;;5.88;82.85;98594.03;5095256;28;20676;-66
2021/04/25 04:49:23;;;;;;;8.50;5.23;;;;;;;5.96;82.46;98591.91;5095585;28;20212;-66
2021/04/25 04:51:49;;;;;;;8.13;5.13;;;;;;;6.04;82.36;98602.91;5095642;28;20235;-66
2021/04/25 04:54:15;;;;;;;7.23;5.07;;;;;;;6.17;81.43;98611.94;5095280;28;20215;-66
2021/04/25 04:56:41;;;;;;;8.37;4.57;;;;;;;6.29;80.34;98616.66;5095452;28;20212;-66
2021/04/25 04:59:07;;;;;;;8.60;5.03;;;;;;;6.31;79.89;98620.09;5095126;28;20233;-66
2021/04/25 05:01:33;;;;;;;8.40;5.10;;;;;;;6.35;79.70;98608.50;5095381;28;20255;-66
2021/04/25 05:04:00;;;;;;;7.53;5.03;;;;;;;6.40;79.20;98614.41;5093702;28;20263;-66
2021/04/25 05:06:26;;;;;;;8.27;5.37;;;;;;;6.30;80.56;98607.84;5095383;28;20210;-66
2021/04/25 05:08:52;;;;;;;8.07;5.33;;;;;;;6.38;79.61;98610.13;5095428;28;20634;-71
2021/04/25 05:11:18;;;;;;;7.87;4.87;;;;;;;6.43;79.55;98613.41;5095185;28;20210;-70
2021/04/25 05:13:44;;;;;;;8.90;5.47;;;;;;;6.52;79.69;98611.22;5094751;28;20229;-71
2021/04/25 05:16:10;;;;;;;7.17;5.30;;;;;;;6.55;79.19;98611.09;5095061;28;20216;-71
2021/04/25 05:18:37;;;;;;;8.63;5.47;;;;;;;6.60;78.37;98622.22;5093801;28;20269;-71
2021/04/25 05:21:04;;;;;;;7.33;5.20;;;;;;;6.66;79.03;98619.31;5095283;28;20216;-68
2021/04/25 05:23:30;;;;;;;8.73;5.60;;;;;;;6.71;77.95;98619.13;5095666;28;20213;-68
2021/04/25 05:25:56;;;;;;;9.40;6.33;;;;;;;6.73;78.50;98628.63;5095290;28;20244;-67
2021/04/25 05:28:22;;;;;;;9.47;5.77;;;;;;;6.86;77.53;98621.91;5094651;28;20214;-66
2021/04/25 05:30:49;;;;;;;9.47;6.00;;;;;;;7.01;76.79;98639.56;5093280;28;20210;-66
2021/04/25 05:33:15;;;;;;;9.43;5.70;;;;;;;7.12;76.22;98634.66;5094437;28;20207;-70
2021/04/25 05:35:41;;;;;;;9.13;5.70;;;;;;;7.13;76.84;98631.09;5094535;28;20214;-70
2021/04/25 05:38:07;;;;;;;7.93;5.00;;;;;;;7.20;76.20;98634.28;5094633;28;20237;-70
2021/04/25 05:40:34;;;;;;;8.57;5.30;;;;;;;7.35;75.53;98639.66;5094652;28;20210;-70
2021/04/25 05:43:00;;;;;;;10.30;5.90;;;;;;;7.36;74.85;98641.38;5094774;28;20210;-71
2021/04/25 05:45:26;;;;;;;11.33;6.07;;;;;;;7.41;75.00;98639.38;5094676;28;20633;-71
2021/04/25 05:47:54;;;;;;;7.00;5.23;;;;;;;7.56;73.76;98639.47;5094124;28;20255;-70
2021/04/25 05:50:22;;;;;;;10.53;6.57;;;;;;;8.11;72.48;98642.81;5094336;28;20581;-71
2021/04/25 05:52:48;;;;;;;8.90;5.40;;;;;;;8.99;68.87;98642.47;5094164;28;20210;-70
2021/04/25 05:55:16;;;;;;;7.57;5.17;;;;;;;9.76;65.35;98649.47;5092739;28;20263;-70
2021/04/25 05:57:42;;;;;;;7.73;4.97;;;;;;;10.33;62.23;98646.94;5093988;28;20202;-67
2021/04/25 06:00:10;;;;;;;7.60;5.10;;;;;;;11.10;60.14;98647.41;5094288;28;20210;-68
2021/04/25 06:02:36;;;;;;;9.20;5.60;;;;;;;11.47;57.89;98647.59;5094288;28;20236;-68
2021/04/25 06:05:03;;;;;;;9.53;5.53;;;;;;;11.99;55.74;98653.84;5093973;28;20229;-69
2021/04/25 06:07:29;;;;;;;10.37;6.00;;;;;;;12.28;54.58;98654.56;5094201;28;20215;-69
2021/04/25 06:09:55;;;;;;;6.97;5.20;;;;;;;12.39;53.55;98662.63;5094011;28;20260;-68
2021/04/25 06:12:21;;;;;;;7.90;5.53;;;;;;;12.49;53.54;98663.69;5093924;28;20218;-68
2021/04/25 06:14:47;;;;;;;9.27;6.13;;;;;;;12.40;53.59;98648.44;5094094;28;20243;-69
2021/04/25 06:17:13;;;;;;;6.77;5.63;;;;;;;12.49;53.19;98656.59;5094050;28;20241;-69
2021/04/25 06:19:39;;;;;;;9.70;6.23;;;;;;;12.50;53.62;98660.09;5093609;28;20242;-69
2021/04/25 06:22:06;;;;;;;9.50;6.07;;;;;;;12.42;53.58;98655.31;5092295;28;20556;-68
2021/04/25 06:24:32;;;;;;;8.33;5.83;;;;;;;12.25;54.61;98655.63;5093549;28;20708;-67
2021/04/25 06:26:58;;;;;;;12.83;6.23;;;;;;;11.59;57.47;98664.53;5093677;28;20209;-68
2021/04/25 06:29:25;;;;;;;8.33;5.87;;;;;;;10.59;59.94;98658.56;5093278;28;20210;-67
2021/04/25 06:31:51;;;;;;;9.07;6.13;;;;;;;9.92;62.55;98660.84;5093658;28;20215;-67
2021/04/25 06:34:17;;;;;;;10.60;7.07;;;;;;;9.60;65.13;98664.50;5093740;28;20218;-67
2021/04/25 06:36:43;;;;;;;10.23;6.40;;;;;;;9.41;65.51;98661.16;5093682;28;20207;-67
2021/04/25 06:39:10;;;;;;;11.03;7.13;;;;;;;9.31;66.78;98665.28;5094208;28;20241;-67
2021/04/25 06:41:36;;;;;;;10.83;7.10;;;;;;;9.32;66.52;98670.47;5093627;28;20660;-67
2021/04/25 06:44:03;;;;;;;8.30;6.60;;;;;;;9.17;67.08;98668.69;5093982;28;20202;-67
2021/04/25 06:46:30;;;;;;;10.03;6.80;;;;;;;9.18;67.86;98672.19;5093323;28;20199;-68
2021/04/25 06:48:57;;;;;;;10.80;7.57;;;;;;;9.22;67.34;98678.97;5091792;28;20202;-67
2021/04/25 06:51:23;;;;;;;9.93;7.37;;;;;;;9.30;67.21;98676.78;5093495;28;20203;-69
2021/04/25 06:53:49;;;;;;;14.20;7.90;;;;;;;9.39;67.82;98676.25;5093123;28;20220;-68
2021/04/25 06:56:15;;;;;;;12.53;7.73;;;;;;;9.42;66.67;98674.28;5093291;28;20626;-68
2021/04/25 06:58:41;;;;;;;11.00;8.23;;;;;;;9.46;66.76;98677.59;5093141;28;20707;-68
2021/04/25 07:01:08;;;;;;;11.43;7.47;;;;;;;9.32;66.91;98677.53;5093230;28;20209;-69
2021/04/25 07:03:35;;;;;;;13.00;8.30;;;;;;;9.45;68.58;98675.91;5092912;28;20239;-69
2021/04/25 07:06:01;;;;;;;12.40;8.07;;;;;;;9.45;66.81;98675.91;5093233;28;20211;-68
2021/04/25 07:08:27;;;;;;;12.70;8.43;;;;;;;9.44;66.60;98676.84;5092908;28;20301;-68
2021/04/25 07:10:53;;;;;;;12.93;8.43;;;;;;;9.55;67.07;98682.38;5090804;28;20276;-68
2021/04/25 07:13:19;;;;;;;14.70;8.57;;;;;;;9.63;66.32;98682.78;5089384;28;20579;-69
2021/04/25 07:15:45;;;;;;;12.17;8.50;;;;;;;9.75;67.72;98679.44;5092415;28;20301;-68
2021/04/25 07:18:11;;;;;;;10.50;8.20;;;;;;;9.90;69.41;98683.88;5092330;28;20321;-68
2021/04/25 07:20:39;;;;;;;14.73;8.20;;;;;;;10.14;66.94;98679.78;5083907;28;20210;-68
2021/04/25 07:23:05;;;;;;;11.50;8.10;;;;;;;10.07;64.77;98681.97;5088345;28;20210;-69
2021/04/25 07:25:32;;;;;;;9.67;8.13;;;;;;;10.13;65.58;98678.09;5092212;28;20260;-69
2021/04/25 07:27:58;;;;;;;11.93;8.33;;;;;;;10.15;67.33;98678.88;5092831;28;20213;-69
2021/04/25 07:30:25;;;;;;;11.97;8.07;;;;;;;10.19;65.44;98680.38;5093094;28;20606;-69
2021/04/25 07:32:51;;;;;;;13.47;9.17;;;;;;;10.34;68.24;98671.56;5092912;28;20210;-69
2021/04/25 07:35:17;;;;;;;13.03;8.40;;;;;;;10.44;66.74;98675.34;5092965;28;20203;-69
2021/04/25 07:37:46;;;;;;;12.00;8.40;;;;;;;10.51;64.31;98661.66;5092669;28;20207;-69
2021/04/25 07:40:13;;;;;;;14.07;9.00;;;;;;;10.63;64.50;98671.50;5090129;28;20329;-69
2021/04/25 07:42:40;;;;;;;14.60;9.40;;;;;;;10.60;64.96;98673.47;5096057;28;20276;-70
2021/04/25 07:45:12;;;;;;;13.50;9.17;;;;;;;10.48;64.91;98668.94;5095912;28;20692;-69
2021/04/25 07:47:39;;;;;;;12.13;9.47;;;;;;;10.59;63.69;98674.44;5096167;28;20218;-70
2021/04/25 07:50:07;;;;;;;12.20;9.03;;;;;;;10.43;63.84;98674.50;5095921;28;20226;-69
2021/04/25 07:52:33;;;;;;;14.27;9.10;;;;;;;10.61;68.14;98667.25;5096265;28;20214;-70
2021/04/25 07:55:00;;;;;;;12.43;8.87;;;;;;;10.75;64.81;98665.47;5096206;28;20207;-69
2021/04/25 07:57:26;;;;;;;11.10;8.23;;;;;;;10.77;65.07;98660.91;5095814;28;20238;-70
2021/04/25 07:59:52;;;;;;;10.97;8.80;;;;;;;10.84;63.37;98664.06;5096023;28;20233;-70
2021/04/25 08:02:20;;;;;;;11.97;9.23;;;;;;;10.91;64.06;98665.38;5095976;28;20208;-70
2021/04/25 08:04:46;;;;;;;12.90;10.67;;;;;;;11.01;64.70;98671.81;5096053;28;20247;-70
2021/04/25 08:07:12;;;;;;;14.60;10.43;;;;;;;11.23;61.43;98661.53;5094211;28;20216;-70
2021/04/25 08:09:38;;;;;;;14.17;10.13;;;;;;;11.17;62.84;98661.94;5095524;28;20624;-70
2021/04/25 08:12:06;;;;;;;15.60;9.97;;;;;;;11.25;61.81;98667.63;5095668;28;20264;-70
2021/04/25 08:14:32;;;;;;;13.47;10.07;;;;;;;11.34;64.52;98669.66;5095445;28;20524;-70
2021/04/25 08:16:58;;;;;;;14.77;10.33;;;;;;;11.54;64.91;98666.56;5095575;28;20299;-70
2021/04/25 08:19:24;;;;;;;12.30;9.93;;;;;;;11.62;61.09;98664.34;5095473;28;20324;-70
2021/04/25 08:21:50;;;;;;;14.90;10.00;;;;;;;11.73;63.24;98664.50;5095491;28;20226;-70
2021/04/25 08:24:16;;;;;;;14.17;10.90;;;;;;;11.85;62.99;98666.31;5095522;28;20207;-70
2021/04/25 08:26:42;;;;;;;12.77;9.77;;;;;;;11.93;63.64;98669.31;5095491;28;20231;-70
2021/04/25 08:29:09;;;;;;;13.10;10.20;;;;;;;12.06;60.24;98667.56;5095533;28;20212;-70
2021/04/25 08:31:36;;;;;;;11.27;8.90;;;;;;;12.00;60.65;98662.66;5095505;28;20206;-70
2021/04/25 08:34:02;;;;;;;14.37;9.50;;;;;;;11.99;58.72;98674.22;5093774;28;20210;-70
2021/04/25 08:36:28;;;;;;;12.03;9.13;;;;;;;11.59;58.18;98659.22;5095353;28;20210;-70
2021/04/25 08:38:54;;;;;;;12.97;9.13;;;;;;;11.66;61.08;98668.47;5095145;28;20705;-70
2021/04/25 08:41:21;;;;;;;12.97;10.00;;;;;;;11.94;63.96;98678.97;5095051;28;20297;-70
2021/04/25 08:43:49;;;;;;;13.03;9.17;;;;;;;11.97;58.64;98670.78;5095058;28;20212;-70
2021/04/25 08:46:18;;;;;;;11.73;8.80;;;;;;;11.99;58.04;98671.56;5094880;28;20309;-70
2021/04/25 08:48:46;;;;;;;12.73;8.87;;;;;;;12.14;57.57;98675.81;5095227;28;20209;-70
2021/04/25 08:51:13;;;;;;;11.90;9.03;;;;;;;12.13;61.15;98674.13;5095202;28;20259;-70
2021/04/25 08:53:39;;;;;;;15.23;9.90;;;;;;;12.24;62.63;98674.28;5094969;28;20220;-70
2021/04/25 08:56:06;;;;;;;11.63;8.93;;;;;;;12.38;59.13;98671.53;5094978;28;20483;-70
2021/04/25 08:58:33;;;;;;;11.50;9.00;;;;;;;12.46;57.88;98659.44;5094851;28;20232;-70
2021/04/25 09:00:59;;;;;;;11.27;8.60;;;;;;;12.39;57.63;98668.78;5093282;28;20229;-70
2021/04/25 09:03:26;;;;;;;11.53;8.70;;;;;;;12.44;54.51;98668.47;5095184;28;20651;-70
2021/04/25 09:05:52;;;;;;;13.00;8.40;;;;;;;12.63;54.00;98669.75;5094605;28;20694;-70
2021/04/25 09:08:18;;;;;;;10.60;8.60;;;;;;;12.75;54.75;98665.41;5094786;28;20225;-70
2021/04/25 09:10:46;;;;;;;11.73;8.50;;;;;;;12.82;54.82;98669.31;5094733;28;20218;-70
2021/04/25 09:13:17;;;;;;;9.10;7.40;;;;;;;12.74;54.71;98669.88;5094661;28;20245;-70
2021/04/25 09:15:45;;;;;;;13.33;7.80;;;;;;;12.74;54.50;98663.69;5094527;28;20221;-70
2021/04/25 09:18:11;;;;;;;11.73;7.50;;;;;;;12.76;55.85;98662.66;5094217;28;20714;-70
2021/04/25 09:20:41;;;;;;;9.47;7.40;;;;;;;12.88;56.98;98666.22;5094496;28;20218;-70
2021/04/25 09:23:10;;;;;;;11.03;7.67;;;;;;;12.89;52.79;98662.66;5094439;28;20218;-70
2021/04/25 09:25:36;;;;;;;9.87;7.53;;;;;;;12.71;53.70;98659.47;5093815;28;20224;-70
2021/04/25 09:28:12;;;;;;;11.67;8.37;;;;;;;12.87;54.69;98653.94;5093503;28;20218;-70
2021/04/25 09:30:38;;;;;;;10.67;7.83;;;;;;;12.95;54.96;98656.91;5094424;28;20210;-69
2021/04/25 09:33:06;;;;;;;9.27;7.47;;;;;;;12.84;52.50;98648.84;5094139;28;20214;-71
2021/04/25 09:35:32;;;;;;;11.17;7.70;;;;;;;12.97;52.70;98652.38;5094199;28;20217;-71
2021/04/25 09:38:10;;;;;;;10.67;7.40;;;;;;;12.87;51.93;98648.63;5094186;28;20249;-71
2021/04/25 09:40:41;;;;;;;9.97;7.97;;;;;;;12.93;54.23;98642.88;5093896;28;20213;-71
2021/04/25 09:43:09;;;;;;;12.17;8.43;;;;;;;12.98;52.13;98651.41;5093732;28;20304;-71
2021/04/25 09:45:36;;;;;;;10.67;7.73;;;;;;;12.98;53.04;98639.00;5093782;28;20209;-69
2021/04/25 09:48:19;;;;;;;13.60;7.73;;;;;;;13.06;53.88;98643.75;5073683;28;20233;-70
2021/04/25 09:50:46;;;;;;;8.93;7.27;;;;;;;13.26;52.61;98637.88;5073690;28;20210;-70
2021/04/25 09:53:17;;;;;;;10.13;7.63;;;;;;;13.43;54.53;98643.66;5071901;28;20462;-69
2021/04/25 09:55:44;;;;;;;8.63;7.27;;;;;;;13.55;54.58;98641.91;5073984;28;20631;-69
2021/04/25 09:58:11;;;;;;;9.33;7.67;;;;;;;13.53;54.69;98643.84;5073321;28;20216;-70
2021/04/25 10:00:39;;;;;;;8.87;7.10;;;;;;;13.56;53.59;98640.97;5073448;28;20735;-71
2021/04/25 10:03:09;;;;;;;10.23;6.93;;;;;;;13.70;49.72;98635.50;5073129;28;20660;-69
2021/04/25 10:05:36;;;;;;;9.50;6.80;;;;;;;13.79;50.40;98632.13;5072954;28;20206;-70
2021/04/25 10:08:03;;;;;;;9.73;7.03;;;;;;;13.78;51.65;98633.09;5073237;28;20253;-70
2021/04/25 10:10:31;;;;;;;10.33;6.93;;;;;;;13.73;50.07;98629.94;5073305;28;20204;-69
2021/04/25 10:12:57;;;;;;;10.27;7.77;;;;;;;13.72;55.53;98629.09;5073545;28;20236;-70
2021/04/25 10:15:24;;;;;;;11.43;7.23;;;;;;;13.94;57.59;98623.03;5073414;28;20215;-70
2021/04/25 10:17:52;;;;;;;8.63;6.83;;;;;;;14.10;50.77;98623.56;5073306;28;20268;-70
2021/04/25 10:20:20;;;;;;;7.97;6.80;;;;;;;14.03;50.43;98622.34;5071515;28;20235;-70
2021/04/25 10:22:48;;;;;;;9.53;6.40;;;;;;;13.75;46.65;98623.56;5072855;28;20212;-70
2021/04/25 10:25:17;;;;;;;8.03;5.73;;;;;;;13.80;45.79;98620.53;5072711;28;20208;-70
2021/04/25 10:27:57;;;;;;;8.27;5.90;;;;;;;13.77;49.22;98623.44;5072967;28;20257;-69
2021/04/25 10:30:28;;;;;;;8.07;5.33;;;;;;;13.89;49.58;98619.88;5072916;28;20218;-69
2021/04/25 10:32:57;;;;;;;9.43;5.83;;;;;;;13.97;46.71;98626.31;5072955;28;20207;-69
2021/04/25 10:35:25;;;;;;;6.93;5.40;;;;;;;13.95;45.09;98625.59;5072574;28;20975;-69
2021/04/25 10:37:51;;;;;;;8.67;4.97;;;;;;;13.91;44.09;98612.63;5072954;28;20211;-70
2021/04/25 10:40:41;;;;;;;7.10;5.30;;;;;;;14.09;44.56;98612.09;5072745;28;20253;-69
2021/04/25 10:43:10;;;;;;;7.53;5.40;;;;;;;14.01;45.47;98609.19;5067497;28;20582;-70
2021/04/25 10:45:55;;;;;;;9.17;5.20;;;;;;;14.20;45.98;98608.66;5070867;28;20207;-69
2021/04/25 10:48:27;;;;;;;8.43;5.80;;;;;;;14.39;46.33;98612.47;5092861;28;20203;-69
2021/04/25 10:50:55;;;;;;;7.23;5.37;;;;;;;14.47;45.93;98611.84;5092784;28;20210;-70
2021/04/25 10:53:23;;;;;;;6.87;4.90;;;;;;;14.60;44.04;98615.28;5092492;28;20660;-69
2021/04/25 10:55:51;;;;;;;6.53;4.53;;;;;;;14.45;42.54;98605.81;5092805;28;20215;-71
2021/04/25 10:58:22;;;;;;;6.87;4.50;;;;;;;14.37;42.41;98602.91;5092474;28;20233;-71
2021/04/25 11:00:49;;;;;;;5.97;4.23;;;;;;;14.21;41.69;98610.34;5092635;28;20289;-70
2021/04/25 11:03:40;;;;;;;4.67;3.93;;;;;;;14.28;41.67;98604.44;5092484;28;20221;-69
2021/04/25 11:06:23;;;;;;;6.03;3.97;;;;;;;14.38;41.97;98607.25;5092957;28;20210;-70
2021/04/25 11:08:49;;;;;;;5.73;4.10;;;;;;;14.17;42.52;98604.38;5092275;28;20684;-69
2021/04/25 11:11:29;;;;;;;4.97;3.50;;;;;;;14.23;42.50;98593.31;5092734;28;20241;-70
2021/04/25 11:13:57;;;;;;;4.50;3.87;;;;;;;14.28;41.50;98596.47;5091172;28;20230;-69
2021/04/25 11:16:27;;;;;;;4.50;3.90;;;;;;;14.45;43.89;98597.81;5096125;28;20210;-68
2021/04/25 11:18:55;;;;;;;5.43;3.80;;;;;;;14.58;40.73;98595.91;5097031;28;20320;-70
2021/04/25 11:21:55;;;;;;;5.27;3.83;;;;;;;14.54;41.83;98591.81;5096404;28;20218;-70
2021/04/25 11:24:32;;;;;;;5.90;3.83;;;;;;;14.54;39.82;98589.16;5096723;28;20202;-70
2021/04/25 11:27:00;;;;;;;4.77;3.87;;;;;;;14.35;39.93;98591.53;5093395;28;20624;-71
2021/04/25 11:29:50;;;;;;;7.43;3.67;;;;;;;14.32;41.23;98586.44;5095647;28;20206;-71
2021/04/25 11:32:31;;;;;;;4.23;3.10;;;;;;;14.66;40.32;98596.19;5095837;28;20214;-71
2021/04/25 11:34:59;;;;;;;5.73;3.77;;;;;;;14.62;38.29;98603.56;5094405;28;20220;-70
2021/04/25 11:37:26;;;;;;;6.03;3.43;;;;;;;14.72;39.79;98590.38;5096119;28;20210;-70